Time;durP1;ratioP1;P1;durP2;ratioP2;P2;SDS_P1;SDS_P2;PMS_P1;PMS_P2;Temp;Humidity;BMP_temperature;BMP_pressure;BME280_temperature;BME280_humidity;BME280_pressure;Samples;Min_cycle;Max_cycle;Signal;HPM_P1;HPM_P2
2022/06/05 13:10:26;;;;;;;4.03;1.30;;;;;;;;;;6819215;19;46942;-83
2022/06/05 13:12:51;;;;;;;;;;;;;;;;;;7356836;19;20636;-81
2022/06/05 13:15:26;;;;;;;3.50;1.25;;;;;;;;;;7374611;19;20633;-80
2022/06/05 13:17:57;;;;;;;3.17;1.30;;;;;;;;;;7366039;19;20006;-78
2022/06/05 13:20:34;;;;;;;5.72;1.15;;;;;;;;;;7370496;19;20017;-85
2022/06/05 13:23:11;;;;;;;2.83;1.20;;;;;;;;;;7372949;19;20018;-80
2022/06/05 13:25:51;;;;;;;3.95;1.40;;;;;;;;;;7368619;19;20010;-80
2022/06/05 13:28:25;;;;;;;3.95;1.20;;;;;;;;;;7369095;19;20637;-79
2022/06/05 13:30:50;;;;;;;3.17;1.38;;;;;;;;;;7377064;19;20006;-78
2022/06/05 13:33:34;;;;;;;4.97;1.35;;;;;;;;;;7372779;19;20005;-80
2022/06/05 13:36:00;;;;;;;;;;;;;;;;;;7371872;19;20876;-82
2022/06/05 13:38:28;;;;;;;3.03;1.40;;;;;;;;;;7338517;19;20469;-82
2022/06/05 13:41:15;;;;;;;3.60;1.60;;;;;;;;;;7356270;19;20015;-82
2022/06/05 13:43:41;;;;;;;4.28;1.60;;;;;;;;;;7360282;19;20005;-83
2022/06/05 13:46:29;;;;;;;4.88;1.77;;;;;;;;;;7359221;19;20874;-80
2022/06/05 13:49:13;;;;;;;4.88;2.00;;;;;;;;;;7358903;19;20029;-79
2022/06/05 13:51:52;;;;;;;4.70;2.35;;;;;;;;;;7366350;19;20097;-80
2022/06/05 13:54:25;;;;;;;6.10;2.63;;;;;;;;;;7364817;19;20066;-82
2022/06/05 13:57:02;;;;;;;5.53;2.63;;;;;;;;;;7365548;19;20046;-81
2022/06/05 13:59:33;;;;;;;7.20;2.58;;;;;;;;;;7371869;19;20030;-80
2022/06/05 14:02:17;;;;;;;4.05;2.25;;;;;;;;;;7346084;19;20369;-85
2022/06/05 14:04:42;;;;;;;;;;;;;;;;;;7360559;19;20470;-81
2022/06/05 14:07:12;;;;;;;5.28;2.65;;;;;;;;;;7366390;19;19922;-81
2022/06/05 14:09:42;;;;;;;4.95;2.50;;;;;;;;;;7357380;19;20018;-79
2022/06/05 14:12:18;;;;;;;5.25;2.58;;;;;;;;;;7367418;19;20051;-82
2022/06/05 14:14:44;;;;;;;6.50;2.50;;;;;;;;;;7358059;19;20010;-83
2022/06/05 14:17:24;;;;;;;4.90;2.33;;;;;;;;;;7329243;19;20723;-83
2022/06/05 14:19:59;;;;;;;7.93;2.40;;;;;;;;;;7363435;19;20029;-85
2022/06/05 14:22:27;;;;;;;4.22;2.40;;;;;;;;;;7369569;19;20006;-84
2022/06/05 14:24:54;;;;;;;4.28;2.30;;;;;;;;;;7364583;19;20351;-80
2022/06/05 14:27:34;;;;;;;4.60;2.00;;;;;;;;;;7377628;19;20070;-81
2022/06/05 14:30:00;;;;;;;5.25;2.10;;;;;;;;;;7376903;19;20260;-81
2022/06/05 14:32:25;;;;;;;5.95;2.17;;;;;;;;;;7371126;19;20009;-80
2022/06/05 14:35:08;;;;;;;4.80;2.03;;;;;;;;;;7369530;19;20347;-80
2022/06/05 14:37:36;;;;;;;5.18;1.90;;;;;;;;;;7376259;19;20255;-80
2022/06/05 14:40:09;;;;;;;5.13;2.03;;;;;;;;;;7372361;19;20022;-84
2022/06/05 14:42:38;;;;;;;4.22;1.73;;;;;;;;;;7375905;19;20038;-85
2022/06/05 14:45:12;;;;;;;5.15;1.80;;;;;;;;;;7371488;19;20019;-82
2022/06/05 14:47:37;;;;;;;5.47;1.95;;;;;;;;;;7370656;19;20021;-87
2022/06/05 14:50:05;;;;;;;5.05;2.03;;;;;;;;;;7379336;19;19999;-83
2022/06/05 14:52:50;;;;;;;4.30;1.80;;;;;;;;;;7380225;19;20475;-79
2022/06/05 14:58:10;;;;;;;4.68;2.00;;;;;;;;;;7377753;19;20034;-84
2022/06/05 15:00:41;;;;;;;4.85;1.80;;;;;;;;;;7370909;19;20007;-80
2022/06/05 15:03:07;;;;;;;4.05;2.05;;;;;;;;;;7376756;19;20047;-80
2022/06/05 15:05:41;;;;;;;4.35;2.08;;;;;;;;;;7373763;19;20002;-80
2022/06/05 15:08:21;;;;;;;5.20;2.13;;;;;;;;;;7381954;19;20684;-80
2022/06/05 15:10:49;;;;;;;4.65;2.10;;;;;;;;;;7382242;19;20007;-80
2022/06/05 15:13:33;;;;;;;5.00;2.30;;;;;;;;;;7378840;19;20022;-83
2022/06/05 15:16:02;;;;;;;;;;;;;;;;;;7373098;19;20490;-79
2022/06/05 15:18:28;;;;;;;5.15;2.40;;;;;;;;;;7378055;19;20435;-84
2022/06/05 15:21:10;;;;;;;7.82;2.40;;;;;;;;;;7378708;19;20022;-79
2022/06/05 15:23:38;;;;;;;4.82;2.67;;;;;;;;;;7376597;19;20014;-78
2022/06/05 15:26:09;;;;;;;4.93;2.80;;;;;;;;;;7381662;19;20039;-78
2022/06/05 15:28:43;;;;;;;4.85;2.33;;;;;;;;;;7380076;19;20075;-81
2022/06/05 15:31:17;;;;;;;4.72;2.88;;;;;;;;;;7381562;19;20002;-81
2022/06/05 15:34:06;;;;;;;8.07;2.90;;;;;;;;;;7378390;19;20056;-82
2022/06/05 15:36:35;;;;;;;6.15;2.50;;;;;;;;;;7370946;19;20473;-78
2022/06/05 15:39:19;;;;;;;5.97;2.50;;;;;;;;;;7373746;19;20014;-79
2022/06/05 15:42:01;;;;;;;7.18;2.50;;;;;;;;;;7375952;19;20022;-79
2022/06/05 15:44:35;;;;;;;5.63;2.47;;;;;;;;;;7380858;19;20701;-80
2022/06/05 15:47:13;;;;;;;5.20;2.60;;;;;;;;;;7375743;19;20018;-78
2022/06/05 15:49:38;;;;;;;8.45;2.60;;;;;;;;;;7372185;19;20002;-79
2022/06/05 15:52:22;;;;;;;4.45;2.28;;;;;;;;;;7382060;19;20010;-78
2022/06/05 15:54:47;;;;;;;6.18;2.92;;;;;;;;;;7381379;19;19999;-79
2022/06/05 16:00:10;;;;;;;4.18;2.40;;;;;;;;;;7375318;19;20653;-78
2022/06/05 16:02:36;;;;;;;4.15;2.10;;;;;;;;;;7380643;19;20021;-79
2022/06/05 16:05:04;;;;;;;5.15;2.28;;;;;;;;;;7369725;19;20070;-81
2022/06/05 16:07:32;;;;;;;4.32;2.28;;;;;;;;;;7381803;19;20014;-79
2022/06/05 16:10:04;;;;;;;5.72;2.38;;;;;;;;;;7374293;19;20183;-77
2022/06/05 16:12:31;;;;;;;5.68;2.53;;;;;;;;;;7380158;19;20006;-78
2022/06/05 16:15:05;;;;;;;4.93;2.13;;;;;;;;;;7379667;19;20041;-79
2022/06/05 16:17:39;;;;;;;18.92;2.72;;;;;;;;;;7375729;19;20404;-83
2022/06/05 16:20:14;;;;;;;4.80;2.10;;;;;;;;;;7373234;19;20027;-78
2022/06/05 16:22:57;;;;;;;5.38;2.67;;;;;;;;;;7382648;19;20003;-78
2022/06/05 16:25:32;;;;;;;6.82;2.67;;;;;;;;;;7373601;19;20082;-78
2022/06/05 16:28:06;;;;;;;4.88;2.70;;;;;;;;;;7381319;19;20496;-79
2022/06/05 16:30:40;;;;;;;4.50;2.20;;;;;;;;;;7375202;19;20006;-78
2022/06/05 16:33:15;;;;;;;5.32;2.55;;;;;;;;;;7381989;19;20372;-82
2022/06/05 16:38:29;;;;;;;5.85;2.83;;;;;;;;;;7376974;19;20005;-81
2022/06/05 16:40:54;;;;;;;6.30;2.83;;;;;;;;;;7378237;19;20006;-82
2022/06/05 16:43:20;;;;;;;10.88;2.20;;;;;;;;;;7375450;19;20019;-79
2022/06/05 16:45:54;;;;;;;5.07;2.30;;;;;;;;;;7379032;19;20011;-78
2022/06/05 16:48:24;;;;;;;6.22;2.53;;;;;;;;;;7380785;19;20022;-79
2022/06/05 16:50:51;;;;;;;5.65;2.40;;;;;;;;;;7373006;19;20077;-85
2022/06/05 16:53:27;;;;;;;4.65;2.90;;;;;;;;;;7366483;19;20007;-78
2022/06/05 16:55:55;;;;;;;5.60;2.70;;;;;;;;;;7371678;19;20030;-78
2022/06/05 16:58:40;;;;;;;7.85;2.72;;;;;;;;;;7378904;19;20014;-81
2022/06/05 17:01:14;;;;;;;7.97;2.83;;;;;;;;;;7374610;19;20382;-79
2022/06/05 17:03:39;;;;;;;5.07;2.72;;;;;;;;;;7338138;19;20284;-78
2022/06/05 17:09:06;;;;;;;7.18;2.88;;;;;;;;;;7354703;19;20029;-81
2022/06/05 17:11:33;;;;;;;7.18;3.10;;;;;;;;;;7359314;19;20569;-82
2022/06/05 17:13:59;;;;;;;6.95;3.17;;;;;;;;;;7363239;19;20003;-83
2022/06/05 17:16:26;;;;;;;6.85;2.97;;;;;;;;;;7367647;19;20025;-79
2022/06/05 17:18:54;;;;;;;5.18;2.75;;;;;;;;;;7371223;19;20006;-79
2022/06/05 17:21:24;;;;;;;7.20;3.25;;;;;;;;;;7367732;19;20012;-79
2022/06/05 17:24:05;;;;;;;6.78;3.28;;;;;;;;;;7372136;19;20015;-81
2022/06/05 17:26:30;;;;;;;5.78;3.30;;;;;;;;;;7367158;19;20027;-79
2022/06/05 17:29:14;;;;;;;8.70;3.60;;;;;;;;;;7368878;19;20019;-78
2022/06/05 17:31:47;;;;;;;7.28;3.70;;;;;;;;;;7369122;19;20001;-78
2022/06/05 17:34:31;;;;;;;5.88;3.40;;;;;;;;;;7369713;19;20371;-77
2022/06/05 17:36:56;;;;;;;;;;;;;;;;;;7370858;19;20031;-82
2022/06/05 17:39:21;;;;;;;6.13;3.60;;;;;;;;;;7372413;19;19923;-78
2022/06/05 17:41:50;;;;;;;7.67;3.60;;;;;;;;;;7370983;19;20087;-82
2022/06/05 17:44:34;;;;;;;6.97;3.25;;;;;;;;;;7348000;19;20282;-84
2022/06/05 17:46:59;;;;;;;;;;;;;;;;;;7359800;19;20425;-82
2022/06/05 17:49:30;;;;;;;6.65;3.42;;;;;;;;;;7357096;19;20533;-79
2022/06/05 17:51:57;;;;;;;5.45;3.30;;;;;;;;;;7373945;19;20474;-78
2022/06/05 17:54:36;;;;;;;6.28;3.85;;;;;;;;;;7368058;19;20019;-81
2022/06/05 17:57:08;;;;;;;8.43;3.92;;;;;;;;;;7367086;19;20021;-84
2022/06/05 17:59:37;;;;;;;8.60;4.03;;;;;;;;;;7369685;19;20026;-79
2022/06/05 18:02:22;;;;;;;7.25;4.30;;;;;;;;;;7370960;19;20015;-80
2022/06/05 18:05:02;;;;;;;7.45;4.18;;;;;;;;;;7365726;19;20467;-81
2022/06/05 18:07:29;;;;;;;10.52;4.28;;;;;;;;;;7352764;19;20059;-78
2022/06/05 18:09:55;;;;;;;6.57;4.40;;;;;;;;;;7369762;19;20033;-82
2022/06/05 18:12:21;;;;;;;6.90;4.40;;;;;;;;;;7369381;19;20006;-81
2022/06/05 18:14:51;;;;;;;8.43;4.60;;;;;;;;;;7365492;19;20021;-80
2022/06/05 18:17:32;;;;;;;8.05;4.53;;;;;;;;;;7371579;19;20058;-81
2022/06/05 18:19:58;;;;;;;7.15;4.35;;;;;;;;;;7361504;19;20014;-82
2022/06/05 18:22:32;;;;;;;7.28;4.10;;;;;;;;;;7364927;19;20471;-78
2022/06/05 18:24:58;;;;;;;7.97;4.35;;;;;;;;;;7380358;19;20409;-81
2022/06/05 18:27:24;;;;;;;8.75;4.47;;;;;;;;;;7378515;19;20010;-78
2022/06/05 18:29:54;;;;;;;7.90;4.25;;;;;;;;;;7377626;19;20006;-80
2022/06/05 18:32:28;;;;;;;9.05;4.38;;;;;;;;;;7377400;19;20018;-80
2022/06/05 18:35:10;;;;;;;6.50;3.80;;;;;;;;;;7366698;19;20023;-80
2022/06/05 18:40:21;;;;;;;7.40;4.53;;;;;;;;;;7371271;19;20015;-81
2022/06/05 18:42:50;;;;;;;7.85;4.25;;;;;;;;;;7377562;19;20015;-79
2022/06/05 18:45:16;;;;;;;8.00;4.60;;;;;;;;;;7368205;19;20018;-82
2022/06/05 18:47:45;;;;;;;8.15;5.05;;;;;;;;;;7377690;19;20006;-81
2022/06/05 18:50:18;;;;;;;8.23;5.13;;;;;;;;;;7378391;19;20062;-80
2022/06/05 18:52:43;;;;;;;10.43;5.57;;;;;;;;;;7378561;19;20071;-79
2022/06/05 18:55:10;;;;;;;8.35;5.03;;;;;;;;;;7367348;19;20014;-77
2022/06/05 18:57:36;;;;;;;8.18;5.20;;;;;;;;;;7377009;19;20023;-83
2022/06/05 19:00:01;;;;;;;8.13;5.05;;;;;;;;;;7375212;19;20051;-79
2022/06/05 19:02:26;;;;;;;10.45;5.70;;;;;;;;;;7374831;19;20014;-79
2022/06/05 19:04:53;;;;;;;8.75;5.50;;;;;;;;;;7376197;19;20018;-80
2022/06/05 19:07:24;;;;;;;8.18;5.43;;;;;;;;;;7372603;19;20018;-82
2022/06/05 19:09:50;;;;;;;12.18;5.68;;;;;;;;;;7347435;19;20066;-78
2022/06/05 19:12:20;;;;;;;11.70;6.18;;;;;;;;;;7374512;19;20043;-83
2022/06/05 19:14:45;;;;;;;11.13;6.43;;;;;;;;;;7370804;19;20427;-78
2022/06/05 19:17:17;;;;;;;9.20;5.97;;;;;;;;;;7369782;19;20411;-79
2022/06/05 19:19:45;;;;;;;9.20;5.90;;;;;;;;;;7370894;19;20013;-80
2022/06/05 19:22:16;;;;;;;10.27;5.72;;;;;;;;;;7368211;19;20455;-78
2022/06/05 19:24:44;;;;;;;9.90;5.13;;;;;;;;;;7369541;19;20097;-80
2022/06/05 19:27:17;;;;;;;9.95;5.45;;;;;;;;;;7365646;19;20017;-79
2022/06/05 19:29:44;;;;;;;9.70;5.60;;;;;;;;;;7371476;19;20036;-79
2022/06/05 19:32:17;;;;;;;9.10;5.20;;;;;;;;;;7373513;19;20357;-79
2022/06/05 19:34:50;;;;;;;11.00;5.68;;;;;;;;;;7363432;19;20511;-79
2022/06/05 19:40:10;;;;;;;8.93;5.63;;;;;;;;;;7372058;19;20430;-78
2022/06/05 19:42:38;;;;;;;8.05;5.55;;;;;;;;;;7367012;19;20046;-79
2022/06/05 19:45:22;;;;;;;7.93;4.78;;;;;;;;;;7371831;19;20010;-80
2022/06/05 19:47:48;;;;;;;9.13;4.63;;;;;;;;;;7375429;19;20380;-79
2022/06/05 19:50:33;;;;;;;9.68;4.53;;;;;;;;;;7371210;19;19999;-80
2022/06/05 19:52:59;;;;;;;5.82;4.00;;;;;;;;;;7372560;19;20003;-82
2022/06/05 19:55:34;;;;;;;8.55;4.45;;;;;;;;;;7364750;19;20005;-82
2022/06/05 19:58:00;;;;;;;7.13;4.30;;;;;;;;;;7376065;19;20007;-77
2022/06/05 20:00:27;;;;;;;9.40;4.38;;;;;;;;;;7368839;19;20046;-81
2022/06/05 20:02:54;;;;;;;9.25;5.18;;;;;;;;;;7372709;19;20029;-79
2022/06/05 20:05:22;;;;;;;7.18;4.50;;;;;;;;;;7373433;19;20470;-78
2022/06/05 20:07:48;;;;;;;6.93;4.50;;;;;;;;;;7373565;19;20007;-83
2022/06/05 20:13:02;;;;;;;7.22;4.85;;;;;;;;;;7322125;19;20104;-74
2022/06/05 20:15:32;;;;;;;8.53;4.37;;;;;;;;;;7342253;19;20601;-74
2022/06/05 20:17:59;;;;;;;6.72;4.57;;;;;;;;;;7371985;19;20021;-73
2022/06/05 20:20:37;;;;;;;7.68;4.35;;;;;;;;;;7364255;19;20018;-74
2022/06/05 20:23:22;;;;;;;6.47;4.22;;;;;;;;;;7372190;19;20002;-74
2022/06/05 20:26:04;;;;;;;6.95;3.80;;;;;;;;;;7374303;19;20089;-74
2022/06/05 20:28:37;;;;;;;8.40;4.10;;;;;;;;;;7367580;19;20010;-76
2022/06/05 20:31:18;;;;;;;6.75;3.95;;;;;;;;;;7371060;19;20005;-74
2022/06/05 20:34:01;;;;;;;7.50;4.05;;;;;;;;;;7364349;19;20429;-74
2022/06/05 20:36:29;;;;;;;6.60;3.72;;;;;;;;;;7369979;19;20457;-74
2022/06/05 20:38:55;;;;;;;12.27;4.47;;;;;;;;;;7375976;19;20019;-75
2022/06/05 20:41:40;;;;;;;8.38;3.67;;;;;;;;;;7368757;19;20002;-74
2022/06/05 20:44:14;;;;;;;5.00;2.83;;;;;;;;;;7373826;19;20025;-75
2022/06/05 20:46:48;;;;;;;7.55;3.58;;;;;;;;;;7366220;19;20010;-76
2022/06/05 20:49:16;;;;;;;7.20;3.78;;;;;;;;;;7363427;19;20470;-74
2022/06/05 20:51:41;;;;;;;8.38;4.50;;;;;;;;;;7371058;19;20011;-73
2022/06/05 20:54:07;;;;;;;7.72;4.85;;;;;;;;;;7377313;19;19998;-75
2022/06/05 20:56:37;;;;;;;8.32;4.82;;;;;;;;;;7370178;19;20455;-76
2022/06/05 20:59:07;;;;;;;9.85;4.93;;;;;;;;;;7370205;19;20320;-75
2022/06/05 21:01:36;;;;;;;10.38;4.80;;;;;;;;;;7369547;19;20466;-74
2022/06/05 21:09:32;;;;;;;9.82;6.10;;;;;;;;;;7370249;19;20367;-74
2022/06/05 21:17:27;;;;;;;14.25;6.35;;;;;;;;;;7362801;19;20082;-74
2022/06/05 21:19:53;;;;;;;11.25;6.72;;;;;;;;;;7362287;19;20007;-74
2022/06/05 21:22:20;;;;;;;11.27;7.43;;;;;;;;;;7370849;19;20006;-75
2022/06/05 21:24:45;;;;;;;12.93;6.95;;;;;;;;;;7368764;19;20002;-74
2022/06/05 21:27:26;;;;;;;14.57;7.53;;;;;;;;;;7371911;19;20428;-75
2022/06/05 21:29:51;;;;;;;16.27;8.73;;;;;;;;;;7373360;19;20010;-75
2022/06/05 21:32:29;;;;;;;16.07;9.03;;;;;;;;;;7376273;19;20070;-76
2022/06/05 21:34:56;;;;;;;22.95;10.88;;;;;;;;;;7374644;19;20680;-77
2022/06/05 21:37:22;;;;;;;21.33;11.18;;;;;;;;;;7375895;19;20007;-74
2022/06/05 21:39:48;;;;;;;25.33;12.25;;;;;;;;;;7373857;19;20035;-74
2022/06/05 21:42:17;;;;;;;21.73;11.95;;;;;;;;;;7369323;19;20018;-74
2022/06/05 21:44:42;;;;;;;24.75;12.95;;;;;;;;;;7375505;19;20051;-76
2022/06/05 21:47:10;;;;;;;30.93;13.80;;;;;;;;;;7373891;19;20383;-74
2022/06/05 21:49:37;;;;;;;25.60;13.95;;;;;;;;;;7370179;19;20240;-75
2022/06/05 21:52:03;;;;;;;25.33;14.30;;;;;;;;;;7378476;19;20010;-76
2022/06/05 21:54:41;;;;;;;26.92;14.50;;;;;;;;;;7368107;19;20381;-74
2022/06/05 21:57:07;;;;;;;27.30;14.27;;;;;;;;;;7370085;19;20023;-75
2022/06/05 21:59:32;;;;;;;29.27;13.15;;;;;;;;;;7374393;19;20577;-74
2022/06/05 22:01:57;;;;;;;26.33;13.67;;;;;;;;;;7372313;19;20014;-74
2022/06/05 22:04:23;;;;;;;27.93;14.30;;;;;;;;;;7373535;19;20243;-73
2022/06/05 22:06:48;;;;;;;29.93;14.13;;;;;;;;;;7374161;19;20558;-74
2022/06/05 22:09:13;;;;;;;26.52;14.02;;;;;;;;;;7377623;19;20239;-74
2022/06/05 22:11:40;;;;;;;28.67;16.23;;;;;;;;;;7368820;19;20023;-74
2022/06/05 22:14:11;;;;;;;32.38;15.98;;;;;;;;;;7373205;19;20018;-74
2022/06/05 22:16:37;;;;;;;30.27;15.75;;;;;;;;;;7368613;19;20022;-74
2022/06/05 22:19:03;;;;;;;32.05;16.98;;;;;;;;;;7367246;19;20348;-74
2022/06/05 22:21:30;;;;;;;38.97;18.77;;;;;;;;;;7375136;19;20015;-75
2022/06/05 22:23:55;;;;;;;32.45;17.42;;;;;;;;;;7369204;19;20017;-73
2022/06/05 22:26:20;;;;;;;33.38;17.38;;;;;;;;;;7368515;19;20734;-76
2022/06/05 22:28:45;;;;;;;36.63;19.87;;;;;;;;;;7369574;19;20010;-74
2022/06/05 22:31:11;;;;;;;38.38;18.65;;;;;;;;;;7374577;19;20348;-74
2022/06/05 22:33:36;;;;;;;38.97;18.25;;;;;;;;;;7364038;19;20027;-74
2022/06/05 22:36:01;;;;;;;35.38;18.35;;;;;;;;;;7371487;19;20413;-74
2022/06/05 22:38:27;;;;;;;32.92;17.02;;;;;;;;;;7369300;19;20006;-75
2022/06/05 22:40:52;;;;;;;37.40;18.40;;;;;;;;;;7377136;19;20351;-75
2022/06/05 22:43:17;;;;;;;37.63;18.80;;;;;;;;;;7364008;19;20243;-74
2022/06/05 22:45:44;;;;;;;28.10;16.53;;;;;;;;;;7366453;19;20547;-74
2022/06/05 22:48:09;;;;;;;37.22;17.98;;;;;;;;;;7375597;19;20251;-74
2022/06/05 22:50:34;;;;;;;35.25;17.17;;;;;;;;;;7368246;19;20389;-74
2022/06/05 22:52:59;;;;;;;36.57;18.77;;;;;;;;;;7374084;19;20418;-75
2022/06/05 22:55:25;;;;;;;34.17;18.97;;;;;;;;;;7373183;19;20256;-74
2022/06/05 22:57:53;;;;;;;29.60;15.80;;;;;;;;;;7374536;19;20342;-75
2022/06/05 23:00:19;;;;;;;32.17;17.48;;;;;;;;;;7370480;19;20027;-74
2022/06/05 23:02:44;;;;;;;35.08;17.98;;;;;;;;;;7375994;19;20450;-74
2022/06/05 23:05:10;;;;;;;34.75;15.80;;;;;;;;;;7367737;19;20057;-74
2022/06/05 23:07:36;;;;;;;28.90;16.23;;;;;;;;;;7372080;19;19999;-75
2022/06/05 23:10:02;;;;;;;31.58;17.25;;;;;;;;;;7375868;19;20359;-75
2022/06/05 23:12:27;;;;;;;34.03;18.23;;;;;;;;;;7378914;19;19999;-73
2022/06/05 23:14:52;;;;;;;37.57;19.53;;;;;;;;;;7375782;19;20573;-74
2022/06/05 23:17:19;;;;;;;36.10;18.83;;;;;;;;;;7374087;19;20246;-74
2022/06/05 23:19:44;;;;;;;35.15;18.25;;;;;;;;;;7374920;19;20247;-74
2022/06/05 23:22:11;;;;;;;33.42;18.27;;;;;;;;;;7379081;19;20324;-75
2022/06/05 23:24:37;;;;;;;36.08;19.17;;;;;;;;;;7378615;19;20115;-74
2022/06/05 23:27:03;;;;;;;33.33;16.73;;;;;;;;;;7376938;19;19999;-74
2022/06/05 23:29:28;;;;;;;30.52;16.20;;;;;;;;;;7379592;19;20047;-74
2022/06/05 23:31:56;;;;;;;29.08;15.52;;;;;;;;;;7380481;19;20039;-74
2022/06/05 23:34:25;;;;;;;32.08;15.27;;;;;;;;;;7366733;19;20006;-74
2022/06/05 23:36:51;;;;;;;30.92;16.05;;;;;;;;;;7374889;19;20042;-74
2022/06/05 23:39:17;;;;;;;32.40;16.40;;;;;;;;;;7375517;19;20494;-74
2022/06/05 23:41:42;;;;;;;33.60;17.63;;;;;;;;;;7376038;19;20007;-74
2022/06/05 23:44:07;;;;;;;32.07;16.03;;;;;;;;;;7379259;19;20014;-74
2022/06/05 23:46:32;;;;;;;34.73;18.10;;;;;;;;;;7378095;19;20750;-74
2022/06/05 23:48:58;;;;;;;39.23;17.90;;;;;;;;;;7378893;19;20086;-74
2022/06/05 23:51:24;;;;;;;30.50;15.68;;;;;;;;;;7380461;19;20786;-74
2022/06/05 23:53:49;;;;;;;32.42;18.23;;;;;;;;;;7379202;19;20006;-75
2022/06/05 23:56:16;;;;;;;33.00;16.77;;;;;;;;;;7377337;19;20015;-74
2022/06/05 23:58:41;;;;;;;35.50;16.27;;;;;;;;;;7377269;19;19995;-74
